sensor_id;sensor_type;location;lat;lon;timestamp;P1;durP1;ratioP1;P2;durP2;ratioP2
10313;SDS011;5202;49.138;10.090;2024-02-16T00:00:24;3.60;;;2.80;;
10313;SDS011;5202;49.138;10.090;2024-02-16T00:02:53;3.90;;;3.00;;
10313;SDS011;5202;49.138;10.090;2024-02-16T00:05:21;5.47;;;3.10;;
10313;SDS011;5202;49.138;10.090;2024-02-16T00:07:51;4.13;;;2.60;;
10313;SDS011;5202;49.138;10.090;2024-02-16T00:10:19;5.23;;;3.23;;
10313;SDS011;5202;49.138;10.090;2024-02-16T00:12:48;4.47;;;3.13;;
10313;SDS011;5202;49.138;10.090;2024-02-16T00:15:16;6.40;;;3.30;;
10313;SDS011;5202;49.138;10.090;2024-02-16T00:17:45;4.47;;;3.40;;
10313;SDS011;5202;49.138;10.090;2024-02-16T00:20:14;5.73;;;3.27;;
10313;SDS011;5202;49.138;10.090;2024-02-16T00:22:42;5.47;;;3.67;;
10313;SDS011;5202;49.138;10.090;2024-02-16T00:25:12;6.23;;;3.03;;
10313;SDS011;5202;49.138;10.090;2024-02-16T00:27:41;4.73;;;3.13;;
10313;SDS011;5202;49.138;10.090;2024-02-16T00:30:10;5.13;;;3.07;;
10313;SDS011;5202;49.138;10.090;2024-02-16T00:32:42;6.07;;;3.47;;
10313;SDS011;5202;49.138;10.090;2024-02-16T00:35:12;3.30;;;2.90;;
10313;SDS011;5202;49.138;10.090;2024-02-16T00:37:42;4.90;;;3.27;;
10313;SDS011;5202;49.138;10.090;2024-02-16T00:40:13;4.83;;;3.17;;
10313;SDS011;5202;49.138;10.090;2024-02-16T00:42:42;4.33;;;3.50;;
10313;SDS011;5202;49.138;10.090;2024-02-16T00:45:10;3.27;;;2.77;;
10313;SDS011;5202;49.138;10.090;2024-02-16T00:47:39;4.53;;;3.07;;
10313;SDS011;5202;49.138;10.090;2024-02-16T00:50:08;10.63;;;3.27;;
10313;SDS011;5202;49.138;10.090;2024-02-16T00:52:37;9.20;;;3.60;;
10313;SDS011;5202;49.138;10.090;2024-02-16T00:55:07;5.97;;;3.20;;
10313;SDS011;5202;49.138;10.090;2024-02-16T00:57:37;6.73;;;3.17;;
10313;SDS011;5202;49.138;10.090;2024-02-16T01:00:06;4.23;;;3.43;;
10313;SDS011;5202;49.138;10.090;2024-02-16T01:02:37;3.47;;;2.97;;
10313;SDS011;5202;49.138;10.090;2024-02-16T01:05:06;5.07;;;3.20;;
10313;SDS011;5202;49.138;10.090;2024-02-16T01:07:41;4.93;;;3.30;;
10313;SDS011;5202;49.138;10.090;2024-02-16T01:10:10;4.77;;;3.70;;
10313;SDS011;5202;49.138;10.090;2024-02-16T01:12:40;6.57;;;3.57;;
10313;SDS011;5202;49.138;10.090;2024-02-16T01:15:08;7.07;;;3.07;;
10313;SDS011;5202;49.138;10.090;2024-02-16T01:17:37;4.40;;;2.90;;
10313;SDS011;5202;49.138;10.090;2024-02-16T01:20:07;7.10;;;3.30;;
10313;SDS011;5202;49.138;10.090;2024-02-16T01:22:39;3.93;;;3.10;;
10313;SDS011;5202;49.138;10.090;2024-02-16T01:25:08;4.40;;;3.03;;
10313;SDS011;5202;49.138;10.090;2024-02-16T01:27:36;4.70;;;2.97;;
10313;SDS011;5202;49.138;10.090;2024-02-16T01:30:09;5.03;;;3.07;;
10313;SDS011;5202;49.138;10.090;2024-02-16T01:32:39;3.40;;;2.63;;
10313;SDS011;5202;49.138;10.090;2024-02-16T01:35:08;5.33;;;3.13;;
10313;SDS011;5202;49.138;10.090;2024-02-16T01:37:36;3.40;;;3.10;;
10313;SDS011;5202;49.138;10.090;2024-02-16T01:40:05;4.20;;;3.43;;
10313;SDS011;5202;49.138;10.090;2024-02-16T01:42:40;4.27;;;3.03;;
10313;SDS011;5202;49.138;10.090;2024-02-16T01:45:10;4.70;;;3.53;;
10313;SDS011;5202;49.138;10.090;2024-02-16T01:47:40;6.00;;;2.83;;
10313;SDS011;5202;49.138;10.090;2024-02-16T01:50:14;6.17;;;3.30;;
10313;SDS011;5202;49.138;10.090;2024-02-16T01:52:43;6.33;;;3.30;;
10313;SDS011;5202;49.138;10.090;2024-02-16T01:55:13;6.07;;;3.00;;
10313;SDS011;5202;49.138;10.090;2024-02-16T01:57:43;6.60;;;3.60;;
10313;SDS011;5202;49.138;10.090;2024-02-16T02:00:14;6.40;;;3.40;;
10313;SDS011;5202;49.138;10.090;2024-02-16T02:02:45;6.63;;;3.20;;
10313;SDS011;5202;49.138;10.090;2024-02-16T02:05:14;5.47;;;3.40;;
10313;SDS011;5202;49.138;10.090;2024-02-16T02:07:43;3.60;;;2.97;;
10313;SDS011;5202;49.138;10.090;2024-02-16T02:10:11;3.73;;;3.20;;
10313;SDS011;5202;49.138;10.090;2024-02-16T02:12:40;3.30;;;3.00;;
10313;SDS011;5202;49.138;10.090;2024-02-16T02:15:09;5.87;;;3.27;;
10313;SDS011;5202;49.138;10.090;2024-02-16T02:17:40;4.20;;;3.00;;
10313;SDS011;5202;49.138;10.090;2024-02-16T02:20:08;4.77;;;2.93;;
10313;SDS011;5202;49.138;10.090;2024-02-16T02:22:40;6.10;;;3.10;;
10313;SDS011;5202;49.138;10.090;2024-02-16T02:25:08;3.40;;;2.70;;
10313;SDS011;5202;49.138;10.090;2024-02-16T02:27:37;3.23;;;2.60;;
10313;SDS011;5202;49.138;10.090;2024-02-16T02:30:06;4.83;;;3.10;;
10313;SDS011;5202;49.138;10.090;2024-02-16T02:32:35;3.27;;;2.97;;
10313;SDS011;5202;49.138;10.090;2024-02-16T02:35:04;4.03;;;2.93;;
10313;SDS011;5202;49.138;10.090;2024-02-16T02:37:35;3.87;;;2.80;;
10313;SDS011;5202;49.138;10.090;2024-02-16T02:40:07;5.10;;;3.27;;
10313;SDS011;5202;49.138;10.090;2024-02-16T02:42:36;5.07;;;3.57;;
10313;SDS011;5202;49.138;10.090;2024-02-16T02:45:05;3.43;;;3.03;;
10313;SDS011;5202;49.138;10.090;2024-02-16T02:47:35;4.57;;;3.30;;
10313;SDS011;5202;49.138;10.090;2024-02-16T02:50:04;4.77;;;3.37;;
10313;SDS011;5202;49.138;10.090;2024-02-16T02:52:34;6.50;;;3.40;;
10313;SDS011;5202;49.138;10.090;2024-02-16T02:55:03;5.00;;;3.47;;
10313;SDS011;5202;49.138;10.090;2024-02-16T02:57:34;7.53;;;3.83;;
10313;SDS011;5202;49.138;10.090;2024-02-16T03:00:08;3.87;;;3.50;;
10313;SDS011;5202;49.138;10.090;2024-02-16T03:02:39;5.03;;;3.43;;
10313;SDS011;5202;49.138;10.090;2024-02-16T03:05:13;6.37;;;3.60;;
10313;SDS011;5202;49.138;10.090;2024-02-16T03:07:43;3.70;;;3.20;;
10313;SDS011;5202;49.138;10.090;2024-02-16T03:10:11;5.90;;;3.80;;
10313;SDS011;5202;49.138;10.090;2024-02-16T03:12:48;3.70;;;3.30;;
10313;SDS011;5202;49.138;10.090;2024-02-16T03:15:17;6.77;;;3.70;;
10313;SDS011;5202;49.138;10.090;2024-02-16T03:17:45;4.90;;;3.40;;
10313;SDS011;5202;49.138;10.090;2024-02-16T03:20:14;3.67;;;3.20;;
10313;SDS011;5202;49.138;10.090;2024-02-16T03:22:43;4.43;;;3.30;;
10313;SDS011;5202;49.138;10.090;2024-02-16T03:25:11;4.47;;;3.53;;
10313;SDS011;5202;49.138;10.090;2024-02-16T03:27:40;5.07;;;3.33;;
10313;SDS011;5202;49.138;10.090;2024-02-16T03:30:11;5.37;;;3.33;;
10313;SDS011;5202;49.138;10.090;2024-02-16T03:32:40;5.23;;;3.43;;
10313;SDS011;5202;49.138;10.090;2024-02-16T03:35:08;5.13;;;3.30;;
10313;SDS011;5202;49.138;10.090;2024-02-16T03:37:37;5.43;;;3.57;;
10313;SDS011;5202;49.138;10.090;2024-02-16T03:40:05;5.87;;;3.90;;
10313;SDS011;5202;49.138;10.090;2024-02-16T03:42:36;8.13;;;3.50;;
10313;SDS011;5202;49.138;10.090;2024-02-16T03:45:05;6.53;;;3.40;;
10313;SDS011;5202;49.138;10.090;2024-02-16T03:47:36;4.30;;;3.77;;
10313;SDS011;5202;49.138;10.090;2024-02-16T03:50:04;4.27;;;3.87;;
10313;SDS011;5202;49.138;10.090;2024-02-16T03:52:34;4.83;;;3.60;;
10313;SDS011;5202;49.138;10.090;2024-02-16T03:55:02;5.37;;;3.80;;
10313;SDS011;5202;49.138;10.090;2024-02-16T03:57:32;5.03;;;3.43;;
10313;SDS011;5202;49.138;10.090;2024-02-16T04:00:00;4.37;;;3.47;;
10313;SDS011;5202;49.138;10.090;2024-02-16T04:02:40;6.17;;;3.80;;
10313;SDS011;5202;49.138;10.090;2024-02-16T04:05:15;4.27;;;3.37;;
10313;SDS011;5202;49.138;10.090;2024-02-16T04:07:43;4.43;;;3.37;;
10313;SDS011;5202;49.138;10.090;2024-02-16T04:10:12;5.10;;;3.47;;
10313;SDS011;5202;49.138;10.090;2024-02-16T04:12:40;5.13;;;3.20;;
10313;SDS011;5202;49.138;10.090;2024-02-16T04:15:09;4.60;;;3.40;;
10313;SDS011;5202;49.138;10.090;2024-02-16T04:17:38;4.53;;;3.20;;
10313;SDS011;5202;49.138;10.090;2024-02-16T04:20:08;3.77;;;3.37;;
10313;SDS011;5202;49.138;10.090;2024-02-16T04:22:37;4.97;;;3.70;;
10313;SDS011;5202;49.138;10.090;2024-02-16T04:25:06;4.17;;;3.13;;
10313;SDS011;5202;49.138;10.090;2024-02-16T04:27:36;4.37;;;3.40;;
10313;SDS011;5202;49.138;10.090;2024-02-16T04:30:05;5.97;;;3.70;;
10313;SDS011;5202;49.138;10.090;2024-02-16T04:32:34;5.00;;;3.20;;
10313;SDS011;5202;49.138;10.090;2024-02-16T04:35:03;4.60;;;3.80;;
10313;SDS011;5202;49.138;10.090;2024-02-16T04:37:34;5.03;;;3.93;;
10313;SDS011;5202;49.138;10.090;2024-02-16T04:40:03;4.47;;;3.83;;
10313;SDS011;5202;49.138;10.090;2024-02-16T04:42:33;5.07;;;3.80;;
10313;SDS011;5202;49.138;10.090;2024-02-16T04:45:01;5.13;;;3.67;;
10313;SDS011;5202;49.138;10.090;2024-02-16T04:47:32;6.03;;;4.07;;
10313;SDS011;5202;49.138;10.090;2024-02-16T04:50:00;6.77;;;3.97;;
10313;SDS011;5202;49.138;10.090;2024-02-16T04:52:29;8.83;;;4.40;;
10313;SDS011;5202;49.138;10.090;2024-02-16T04:54:59;5.20;;;4.17;;
10313;SDS011;5202;49.138;10.090;2024-02-16T04:57:27;7.80;;;4.20;;
10313;SDS011;5202;49.138;10.090;2024-02-16T04:59:56;9.10;;;4.73;;
10313;SDS011;5202;49.138;10.090;2024-02-16T05:02:24;6.03;;;3.97;;
10313;SDS011;5202;49.138;10.090;2024-02-16T05:05:03;5.70;;;4.20;;
10313;SDS011;5202;49.138;10.090;2024-02-16T05:07:32;5.20;;;4.30;;
10313;SDS011;5202;49.138;10.090;2024-02-16T05:10:07;6.40;;;4.00;;
10313;SDS011;5202;49.138;10.090;2024-02-16T05:12:37;8.80;;;4.27;;
10313;SDS011;5202;49.138;10.090;2024-02-16T05:15:05;5.60;;;4.23;;
10313;SDS011;5202;49.138;10.090;2024-02-16T05:17:36;5.37;;;4.10;;
10313;SDS011;5202;49.138;10.090;2024-02-16T05:20:07;6.83;;;4.30;;
10313;SDS011;5202;49.138;10.090;2024-02-16T05:22:42;4.63;;;3.53;;
10313;SDS011;5202;49.138;10.090;2024-02-16T05:25:13;4.00;;;3.10;;
10313;SDS011;5202;49.138;10.090;2024-02-16T05:27:44;4.63;;;3.23;;
10313;SDS011;5202;49.138;10.090;2024-02-16T05:30:14;4.70;;;3.40;;
10313;SDS011;5202;49.138;10.090;2024-02-16T05:32:43;7.53;;;4.10;;
10313;SDS011;5202;49.138;10.090;2024-02-16T05:35:12;5.70;;;3.60;;
10313;SDS011;5202;49.138;10.090;2024-02-16T05:37:42;7.57;;;3.70;;
10313;SDS011;5202;49.138;10.090;2024-02-16T05:40:15;5.27;;;4.07;;
10313;SDS011;5202;49.138;10.090;2024-02-16T05:42:49;6.30;;;4.00;;
10313;SDS011;5202;49.138;10.090;2024-02-16T05:45:19;6.17;;;4.57;;
10313;SDS011;5202;49.138;10.090;2024-02-16T05:47:48;10.57;;;4.43;;
10313;SDS011;5202;49.138;10.090;2024-02-16T05:50:19;5.87;;;4.37;;
10313;SDS011;5202;49.138;10.090;2024-02-16T05:52:49;7.90;;;4.53;;
10313;SDS011;5202;49.138;10.090;2024-02-16T05:55:21;4.43;;;3.83;;
10313;SDS011;5202;49.138;10.090;2024-02-16T05:57:50;19.57;;;14.90;;
10313;SDS011;5202;49.138;10.090;2024-02-16T06:00:19;9.80;;;4.80;;
10313;SDS011;5202;49.138;10.090;2024-02-16T06:02:48;5.80;;;4.70;;
10313;SDS011;5202;49.138;10.090;2024-02-16T06:05:17;10.13;;;4.97;;
10313;SDS011;5202;49.138;10.090;2024-02-16T06:07:48;6.73;;;4.53;;
10313;SDS011;5202;49.138;10.090;2024-02-16T06:10:17;7.07;;;5.30;;
10313;SDS011;5202;49.138;10.090;2024-02-16T06:12:46;8.40;;;4.80;;
10313;SDS011;5202;49.138;10.090;2024-02-16T06:15:15;8.97;;;5.23;;
10313;SDS011;5202;49.138;10.090;2024-02-16T06:17:44;7.90;;;4.77;;
10313;SDS011;5202;49.138;10.090;2024-02-16T06:20:17;8.27;;;4.67;;
10313;SDS011;5202;49.138;10.090;2024-02-16T06:22:47;6.40;;;4.93;;
10313;SDS011;5202;49.138;10.090;2024-02-16T06:25:15;7.50;;;4.90;;
10313;SDS011;5202;49.138;10.090;2024-02-16T06:27:46;5.47;;;4.63;;
10313;SDS011;5202;49.138;10.090;2024-02-16T06:30:15;6.03;;;4.57;;
10313;SDS011;5202;49.138;10.090;2024-02-16T06:32:44;5.87;;;4.67;;
10313;SDS011;5202;49.138;10.090;2024-02-16T06:35:13;7.70;;;4.70;;
10313;SDS011;5202;49.138;10.090;2024-02-16T06:37:41;5.77;;;5.17;;
10313;SDS011;5202;49.138;10.090;2024-02-16T06:40:13;10.23;;;4.73;;
10313;SDS011;5202;49.138;10.090;2024-02-16T06:42:41;8.73;;;5.13;;
10313;SDS011;5202;49.138;10.090;2024-02-16T06:45:11;7.47;;;4.90;;
10313;SDS011;5202;49.138;10.090;2024-02-16T06:47:40;7.57;;;4.73;;
10313;SDS011;5202;49.138;10.090;2024-02-16T06:50:08;6.93;;;4.40;;
10313;SDS011;5202;49.138;10.090;2024-02-16T06:52:37;8.20;;;5.00;;
10313;SDS011;5202;49.138;10.090;2024-02-16T06:55:06;6.83;;;5.00;;
10313;SDS011;5202;49.138;10.090;2024-02-16T06:57:37;8.60;;;5.63;;
10313;SDS011;5202;49.138;10.090;2024-02-16T07:00:05;15.67;;;10.17;;
10313;SDS011;5202;49.138;10.090;2024-02-16T07:02:37;14.87;;;7.67;;
10313;SDS011;5202;49.138;10.090;2024-02-16T07:05:08;10.10;;;7.63;;
10313;SDS011;5202;49.138;10.090;2024-02-16T07:07:39;11.07;;;7.77;;
10313;SDS011;5202;49.138;10.090;2024-02-16T07:10:11;11.83;;;7.57;;
10313;SDS011;5202;49.138;10.090;2024-02-16T07:12:40;9.13;;;6.93;;
10313;SDS011;5202;49.138;10.090;2024-02-16T07:15:09;12.57;;;8.50;;
10313;SDS011;5202;49.138;10.090;2024-02-16T07:17:38;9.50;;;7.17;;
10313;SDS011;5202;49.138;10.090;2024-02-16T07:20:07;9.87;;;6.90;;
10313;SDS011;5202;49.138;10.090;2024-02-16T07:22:37;9.30;;;7.17;;
10313;SDS011;5202;49.138;10.090;2024-02-16T07:25:06;9.77;;;7.17;;
10313;SDS011;5202;49.138;10.090;2024-02-16T07:27:36;9.10;;;6.50;;
10313;SDS011;5202;49.138;10.090;2024-02-16T07:30:05;9.57;;;6.93;;
10313;SDS011;5202;49.138;10.090;2024-02-16T07:32:39;7.63;;;6.47;;
10313;SDS011;5202;49.138;10.090;2024-02-16T07:35:07;12.07;;;6.40;;
10313;SDS011;5202;49.138;10.090;2024-02-16T07:37:36;9.67;;;5.70;;
10313;SDS011;5202;49.138;10.090;2024-02-16T07:40:05;9.13;;;5.90;;
10313;SDS011;5202;49.138;10.090;2024-02-16T07:42:37;8.20;;;5.63;;
10313;SDS011;5202;49.138;10.090;2024-02-16T07:45:08;8.13;;;6.03;;
10313;SDS011;5202;49.138;10.090;2024-02-16T07:47:40;8.27;;;6.40;;
10313;SDS011;5202;49.138;10.090;2024-02-16T07:50:09;10.10;;;6.17;;
10313;SDS011;5202;49.138;10.090;2024-02-16T07:52:38;10.83;;;7.07;;
10313;SDS011;5202;49.138;10.090;2024-02-16T07:55:07;11.90;;;6.60;;
10313;SDS011;5202;49.138;10.090;2024-02-16T07:57:36;11.17;;;6.93;;
10313;SDS011;5202;49.138;10.090;2024-02-16T08:00:05;8.97;;;6.93;;
10313;SDS011;5202;49.138;10.090;2024-02-16T08:02:37;9.70;;;7.27;;
10313;SDS011;5202;49.138;10.090;2024-02-16T08:05:10;12.17;;;7.30;;
10313;SDS011;5202;49.138;10.090;2024-02-16T08:07:39;10.23;;;7.10;;
10313;SDS011;5202;49.138;10.090;2024-02-16T08:10:09;9.03;;;7.10;;
10313;SDS011;5202;49.138;10.090;2024-02-16T08:12:39;9.30;;;6.70;;
10313;SDS011;5202;49.138;10.090;2024-02-16T08:15:08;9.40;;;7.30;;
10313;SDS011;5202;49.138;10.090;2024-02-16T08:17:44;15.77;;;10.03;;
10313;SDS011;5202;49.138;10.090;2024-02-16T08:20:13;12.87;;;9.37;;
10313;SDS011;5202;49.138;10.090;2024-02-16T08:22:42;12.57;;;9.50;;
10313;SDS011;5202;49.138;10.090;2024-02-16T08:25:10;16.37;;;9.07;;
10313;SDS011;5202;49.138;10.090;2024-02-16T08:27:39;9.80;;;7.73;;
10313;SDS011;5202;49.138;10.090;2024-02-16T08:30:08;11.80;;;6.70;;
10313;SDS011;5202;49.138;10.090;2024-02-16T08:32:38;11.70;;;7.23;;
10313;SDS011;5202;49.138;10.090;2024-02-16T08:35:10;10.43;;;6.60;;
10313;SDS011;5202;49.138;10.090;2024-02-16T08:37:41;11.07;;;7.80;;
10313;SDS011;5202;49.138;10.090;2024-02-16T08:40:09;11.43;;;8.60;;
10313;SDS011;5202;49.138;10.090;2024-02-16T08:42:42;10.10;;;7.80;;
10313;SDS011;5202;49.138;10.090;2024-02-16T08:45:14;11.17;;;6.93;;
10313;SDS011;5202;49.138;10.090;2024-02-16T08:47:45;34.63;;;22.63;;
10313;SDS011;5202;49.138;10.090;2024-02-16T08:50:19;24.93;;;17.10;;
10313;SDS011;5202;49.138;10.090;2024-02-16T08:52:48;17.23;;;11.97;;
10313;SDS011;5202;49.138;10.090;2024-02-16T08:55:16;13.27;;;10.07;;
10313;SDS011;5202;49.138;10.090;2024-02-16T08:57:45;11.47;;;7.87;;
10313;SDS011;5202;49.138;10.090;2024-02-16T09:00:14;13.17;;;7.57;;
10313;SDS011;5202;49.138;10.090;2024-02-16T09:02:43;10.47;;;7.80;;
10313;SDS011;5202;49.138;10.090;2024-02-16T09:05:25;33.93;;;16.63;;
10313;SDS011;5202;49.138;10.090;2024-02-16T09:08:04;10.77;;;7.37;;
10313;SDS011;5202;49.138;10.090;2024-02-16T09:10:33;13.10;;;7.97;;
10313;SDS011;5202;49.138;10.090;2024-02-16T09:13:04;8.83;;;7.60;;
10313;SDS011;5202;49.138;10.090;2024-02-16T09:15:32;10.53;;;8.10;;
10313;SDS011;5202;49.138;10.090;2024-02-16T09:18:01;10.03;;;7.27;;
10313;SDS011;5202;49.138;10.090;2024-02-16T09:20:31;12.53;;;8.27;;
10313;SDS011;5202;49.138;10.090;2024-02-16T09:23:00;9.90;;;7.60;;
10313;SDS011;5202;49.138;10.090;2024-02-16T09:25:29;13.20;;;9.40;;
10313;SDS011;5202;49.138;10.090;2024-02-16T09:27:57;11.70;;;8.10;;
10313;SDS011;5202;49.138;10.090;2024-02-16T09:30:26;12.43;;;8.97;;
10313;SDS011;5202;49.138;10.090;2024-02-16T09:32:54;9.00;;;7.20;;
10313;SDS011;5202;49.138;10.090;2024-02-16T09:35:23;7.97;;;7.17;;
10313;SDS011;5202;49.138;10.090;2024-02-16T09:37:53;10.27;;;7.10;;
10313;SDS011;5202;49.138;10.090;2024-02-16T09:40:25;9.50;;;7.00;;
10313;SDS011;5202;49.138;10.090;2024-02-16T09:42:54;11.37;;;8.20;;
10313;SDS011;5202;49.138;10.090;2024-02-16T09:45:22;11.93;;;7.07;;
10313;SDS011;5202;49.138;10.090;2024-02-16T09:47:52;8.70;;;7.07;;
10313;SDS011;5202;49.138;10.090;2024-02-16T09:50:32;9.13;;;7.37;;
10313;SDS011;5202;49.138;10.090;2024-02-16T09:53:02;9.27;;;6.73;;
10313;SDS011;5202;49.138;10.090;2024-02-16T09:55:33;11.47;;;8.50;;
10313;SDS011;5202;49.138;10.090;2024-02-16T09:58:01;17.90;;;11.17;;
10313;SDS011;5202;49.138;10.090;2024-02-16T10:00:31;17.87;;;12.60;;
10313;SDS011;5202;49.138;10.090;2024-02-16T10:03:00;8.63;;;7.73;;
10313;SDS011;5202;49.138;10.090;2024-02-16T10:05:28;9.57;;;7.23;;
10313;SDS011;5202;49.138;10.090;2024-02-16T10:07:58;8.80;;;7.27;;
10313;SDS011;5202;49.138;10.090;2024-02-16T10:10:29;10.47;;;7.40;;
10313;SDS011;5202;49.138;10.090;2024-02-16T10:13:01;11.53;;;7.63;;
10313;SDS011;5202;49.138;10.090;2024-02-16T10:15:30;11.80;;;7.40;;
10313;SDS011;5202;49.138;10.090;2024-02-16T10:18:00;9.30;;;7.00;;
10313;SDS011;5202;49.138;10.090;2024-02-16T10:20:30;8.60;;;6.37;;
10313;SDS011;5202;49.138;10.090;2024-02-16T10:23:04;8.93;;;6.03;;
10313;SDS011;5202;49.138;10.090;2024-02-16T10:25:35;6.90;;;6.03;;
10313;SDS011;5202;49.138;10.090;2024-02-16T10:28:06;8.67;;;6.70;;
10313;SDS011;5202;49.138;10.090;2024-02-16T10:30:37;13.97;;;8.57;;
10313;SDS011;5202;49.138;10.090;2024-02-16T10:33:07;9.60;;;7.03;;
10313;SDS011;5202;49.138;10.090;2024-02-16T10:35:36;7.80;;;6.93;;
10313;SDS011;5202;49.138;10.090;2024-02-16T10:38:06;9.13;;;6.33;;
10313;SDS011;5202;49.138;10.090;2024-02-16T10:40:38;9.30;;;6.40;;
10313;SDS011;5202;49.138;10.090;2024-02-16T10:43:08;7.13;;;6.07;;
10313;SDS011;5202;49.138;10.090;2024-02-16T10:45:37;5.97;;;5.20;;
10313;SDS011;5202;49.138;10.090;2024-02-16T10:48:07;9.63;;;5.57;;
10313;SDS011;5202;49.138;10.090;2024-02-16T10:50:36;7.40;;;4.80;;
10313;SDS011;5202;49.138;10.090;2024-02-16T10:53:09;12.50;;;4.67;;
10313;SDS011;5202;49.138;10.090;2024-02-16T10:55:43;6.53;;;4.60;;
10313;SDS011;5202;49.138;10.090;2024-02-16T10:58:11;6.30;;;5.17;;
10313;SDS011;5202;49.138;10.090;2024-02-16T11:03:37;8.40;;;4.33;;
10313;SDS011;5202;49.138;10.090;2024-02-16T11:06:11;10.83;;;4.67;;
10313;SDS011;5202;49.138;10.090;2024-02-16T11:08:44;6.97;;;4.00;;
10313;SDS011;5202;49.138;10.090;2024-02-16T11:11:23;5.80;;;3.97;;
10313;SDS011;5202;49.138;10.090;2024-02-16T11:13:54;8.00;;;4.27;;
10313;SDS011;5202;49.138;10.090;2024-02-16T11:16:23;6.80;;;4.27;;
10313;SDS011;5202;49.138;10.090;2024-02-16T11:18:56;9.23;;;4.83;;
10313;SDS011;5202;49.138;10.090;2024-02-16T11:21:25;6.00;;;4.33;;
10313;SDS011;5202;49.138;10.090;2024-02-16T11:23:53;8.70;;;4.37;;
10313;SDS011;5202;49.138;10.090;2024-02-16T11:26:43;6.40;;;4.10;;
10313;SDS011;5202;49.138;10.090;2024-02-16T11:29:13;4.63;;;4.07;;
10313;SDS011;5202;49.138;10.090;2024-02-16T11:31:42;5.43;;;4.30;;
10313;SDS011;5202;49.138;10.090;2024-02-16T11:34:20;4.33;;;3.80;;
10313;SDS011;5202;49.138;10.090;2024-02-16T11:36:51;4.90;;;3.73;;
10313;SDS011;5202;49.138;10.090;2024-02-16T11:39:23;5.27;;;3.40;;
10313;SDS011;5202;49.138;10.090;2024-02-16T11:42:01;4.23;;;3.20;;
10313;SDS011;5202;49.138;10.090;2024-02-16T11:44:31;5.23;;;3.57;;
10313;SDS011;5202;49.138;10.090;2024-02-16T11:47:02;8.70;;;3.13;;
10313;SDS011;5202;49.138;10.090;2024-02-16T11:49:33;3.90;;;3.13;;
10313;SDS011;5202;49.138;10.090;2024-02-16T11:52:03;9.45;;;3.25;;
10313;SDS011;5202;49.138;10.090;2024-02-16T11:54:32;5.43;;;3.83;;
10313;SDS011;5202;49.138;10.090;2024-02-16T11:57:03;5.00;;;3.77;;
10313;SDS011;5202;49.138;10.090;2024-02-16T11:59:31;4.77;;;3.90;;
10313;SDS011;5202;49.138;10.090;2024-02-16T12:02:00;6.43;;;3.60;;
10313;SDS011;5202;49.138;10.090;2024-02-16T12:04:29;4.03;;;3.53;;
10313;SDS011;5202;49.138;10.090;2024-02-16T12:07:02;6.20;;;3.33;;
10313;SDS011;5202;49.138;10.090;2024-02-16T12:09:31;4.10;;;2.70;;
10313;SDS011;5202;49.138;10.090;2024-02-16T12:12:04;5.38;;;3.17;;
10313;SDS011;5202;49.138;10.090;2024-02-16T12:14:34;4.43;;;3.30;;
10313;SDS011;5202;49.138;10.090;2024-02-16T12:17:04;4.28;;;2.53;;
10313;SDS011;5202;49.138;10.090;2024-02-16T12:19:35;4.43;;;2.80;;
10313;SDS011;5202;49.138;10.090;2024-02-16T12:22:04;2.83;;;2.55;;
10313;SDS011;5202;49.138;10.090;2024-02-16T12:24:32;4.43;;;2.83;;
10313;SDS011;5202;49.138;10.090;2024-02-16T12:27:01;6.43;;;3.03;;
10313;SDS011;5202;49.138;10.090;2024-02-16T12:29:31;3.42;;;2.75;;
10313;SDS011;5202;49.138;10.090;2024-02-16T12:32:00;4.40;;;2.60;;
10313;SDS011;5202;49.138;10.090;2024-02-16T12:34:28;6.95;;;2.65;;
10313;SDS011;5202;49.138;10.090;2024-02-16T12:36:57;5.90;;;2.60;;
10313;SDS011;5202;49.138;10.090;2024-02-16T12:39:26;3.75;;;2.25;;
10313;SDS011;5202;49.138;10.090;2024-02-16T12:41:54;3.63;;;2.33;;
10313;SDS011;5202;49.138;10.090;2024-02-16T12:44:25;4.75;;;2.60;;
10313;SDS011;5202;49.138;10.090;2024-02-16T12:46:54;2.95;;;2.33;;
10313;SDS011;5202;49.138;10.090;2024-02-16T12:49:22;3.42;;;2.58;;
10313;SDS011;5202;49.138;10.090;2024-02-16T12:51:52;2.92;;;2.20;;
10313;SDS011;5202;49.138;10.090;2024-02-16T12:54:21;3.75;;;2.30;;
10313;SDS011;5202;49.138;10.090;2024-02-16T12:56:50;4.00;;;2.20;;
10313;SDS011;5202;49.138;10.090;2024-02-16T12:59:23;3.95;;;1.90;;
10313;SDS011;5202;49.138;10.090;2024-02-16T13:01:55;6.70;;;2.80;;
10313;SDS011;5202;49.138;10.090;2024-02-16T13:04:23;3.78;;;2.50;;
10313;SDS011;5202;49.138;10.090;2024-02-16T13:07:08;5.80;;;2.47;;
10313;SDS011;5202;49.138;10.090;2024-02-16T13:09:38;5.22;;;2.70;;
10313;SDS011;5202;49.138;10.090;2024-02-16T13:12:06;7.68;;;2.58;;
10313;SDS011;5202;49.138;10.090;2024-02-16T13:14:35;4.88;;;2.35;;
10313;SDS011;5202;49.138;10.090;2024-02-16T13:17:06;3.75;;;2.28;;
10313;SDS011;5202;49.138;10.090;2024-02-16T13:19:34;3.83;;;2.42;;
10313;SDS011;5202;49.138;10.090;2024-02-16T13:22:03;7.90;;;2.05;;
10313;SDS011;5202;49.138;10.090;2024-02-16T13:24:33;4.30;;;1.85;;
10313;SDS011;5202;49.138;10.090;2024-02-16T13:27:02;3.72;;;2.03;;
10313;SDS011;5202;49.138;10.090;2024-02-16T13:29:32;3.35;;;2.05;;
10313;SDS011;5202;49.138;10.090;2024-02-16T13:32:03;5.72;;;2.63;;
10313;SDS011;5202;49.138;10.090;2024-02-16T13:34:33;3.45;;;2.15;;
10313;SDS011;5202;49.138;10.090;2024-02-16T13:37:02;7.15;;;1.88;;
10313;SDS011;5202;49.138;10.090;2024-02-16T13:39:31;4.82;;;2.15;;
10313;SDS011;5202;49.138;10.090;2024-02-16T13:41:59;6.70;;;2.17;;
10313;SDS011;5202;49.138;10.090;2024-02-16T13:44:28;5.90;;;2.70;;
10313;SDS011;5202;49.138;10.090;2024-02-16T13:46:56;4.68;;;2.17;;
10313;SDS011;5202;49.138;10.090;2024-02-16T13:49:26;6.78;;;2.35;;
10313;SDS011;5202;49.138;10.090;2024-02-16T13:51:55;3.63;;;2.25;;
10313;SDS011;5202;49.138;10.090;2024-02-16T13:54:25;5.35;;;2.60;;
10313;SDS011;5202;49.138;10.090;2024-02-16T13:56:54;2.88;;;2.40;;
10313;SDS011;5202;49.138;10.090;2024-02-16T13:59:23;5.10;;;2.35;;
10313;SDS011;5202;49.138;10.090;2024-02-16T14:01:52;10.65;;;2.97;;
10313;SDS011;5202;49.138;10.090;2024-02-16T14:04:21;5.78;;;2.40;;
10313;SDS011;5202;49.138;10.090;2024-02-16T14:06:52;5.03;;;2.47;;
10313;SDS011;5202;49.138;10.090;2024-02-16T14:09:20;2.92;;;2.40;;
10313;SDS011;5202;49.138;10.090;2024-02-16T14:11:59;3.05;;;2.08;;
10313;SDS011;5202;49.138;10.090;2024-02-16T14:14:27;4.95;;;2.55;;
10313;SDS011;5202;49.138;10.090;2024-02-16T14:17:03;3.92;;;2.80;;
10313;SDS011;5202;49.138;10.090;2024-02-16T14:19:33;5.43;;;2.35;;
10313;SDS011;5202;49.138;10.090;2024-02-16T14:22:05;11.20;;;2.88;;
10313;SDS011;5202;49.138;10.090;2024-02-16T14:24:35;8.93;;;2.80;;
10313;SDS011;5202;49.138;10.090;2024-02-16T14:27:03;3.70;;;2.53;;
10313;SDS011;5202;49.138;10.090;2024-02-16T14:29:32;4.90;;;2.25;;
10313;SDS011;5202;49.138;10.090;2024-02-16T14:32:01;6.57;;;2.15;;
10313;SDS011;5202;49.138;10.090;2024-02-16T14:34:29;4.63;;;2.08;;
10313;SDS011;5202;49.138;10.090;2024-02-16T14:36:58;2.63;;;2.08;;
10313;SDS011;5202;49.138;10.090;2024-02-16T14:39:28;4.43;;;2.30;;
10313;SDS011;5202;49.138;10.090;2024-02-16T14:41:57;3.92;;;2.60;;
10313;SDS011;5202;49.138;10.090;2024-02-16T14:44:25;4.00;;;2.40;;
10313;SDS011;5202;49.138;10.090;2024-02-16T14:46:54;3.88;;;1.92;;
10313;SDS011;5202;49.138;10.090;2024-02-16T14:49:23;4.28;;;2.10;;
10313;SDS011;5202;49.138;10.090;2024-02-16T14:51:53;3.75;;;2.03;;
10313;SDS011;5202;49.138;10.090;2024-02-16T14:54:22;3.72;;;2.30;;
10313;SDS011;5202;49.138;10.090;2024-02-16T14:56:53;6.45;;;2.45;;
10313;SDS011;5202;49.138;10.090;2024-02-16T14:59:22;3.67;;;2.22;;
10313;SDS011;5202;49.138;10.090;2024-02-16T15:01:50;6.75;;;2.20;;
10313;SDS011;5202;49.138;10.090;2024-02-16T15:04:19;5.20;;;2.15;;